Kaunas, Lithuania

7:20 AM EEST on September 01, 2015 (GMT +0300)
Kauno Klinikos | | Change Station
CLOSE
Current Station
Personal Weather Station
Location: Kaunas, KAUNO APSKRITIS
Elevation: 246 ft
Nearby Weather Stations

Elev 246 ft 54.92 °N, 23.92 °E | Updated 58 seconds ago

Clear
Clear
63.1 °F
Feels Like 63.1 °F
N
7.7
Wind Variable Wind from East
Gusts 9.8 mph

Today
High -- | Low -- °F
--% Chance of Precip.
Yesterday
High -- | Low -- °F
Precip. -- in
6:30 AM 8:18 PM
Waning Gibbous, 91% visible
Pressure 29.86 in
Visibility -9999.0 miles
Clouds
Dew Point 52 °F
Humidity 68%
Rainfall 0.00 in
Snow Depth Not available.
UV Not available.
Pollen Not available.
Air Quality Not available.
Flu Activity Not available.
METAR EYKA 010420Z 08007KT CAVOK 16/10 Q1011
Pressure 29.86 in
Visibility -9999.0 miles
Clouds
Dew Point 52 °F
Humidity 68%
Rainfall 0.00 in
Snow Depth Not available.
UV Not available.
Pollen Not available.
Air Quality Not available.
Flu Activity Not available.
METAR EYKA 010420Z 08007KT CAVOK 16/10 Q1011

10-Day Weather Forecast

×

Almanac

Astronomy

Sep. 01, 2015 Rise Set
Actual Time
Civil Twilight
Nautical Twilight
Astronomical Twilight
Moon
Length of Visible Light
Length of Day
Tomorrow will be .
, % of the Moon is Illuminated

Today's Extremes

Country Highs Country Lows

Community

WunderPhotos

Upload Photos

1,851,477 photos uploaded!

WunderBlogs® & News

Nearby

Air Quality

  Air Quality AQ Index Pollutant
Not available.

Snow Depth

Station Depth Elevation

Earthquake Activity

City Distance Mag. Time & Date
Minimum magnitude displayed is 2.5.

Coastal Water Temperatures

Place Temperature

Stations

Nearby Weather Stations

Station Location Temp. Windchill Dew Point Humidity Wind Precip. Elev Updated Type